createdAt,value
2018-06-17T00:01:33.109Z,9.73
2018-06-17T00:04:01.202Z,9.10
2018-06-17T00:06:29.303Z,9.73
2018-06-17T00:08:57.411Z,9.40
2018-06-17T00:11:25.515Z,9.30
2018-06-17T00:13:53.637Z,9.30
2018-06-17T00:16:21.768Z,9.70
2018-06-17T00:18:49.873Z,10.23
2018-06-17T00:21:17.979Z,9.97
2018-06-17T00:23:46.087Z,10.30
2018-06-17T00:26:14.198Z,10.43
2018-06-17T00:28:42.295Z,10.47
2018-06-17T00:31:10.449Z,9.83
2018-06-17T00:33:38.703Z,10.03
2018-06-17T00:36:06.821Z,10.17
2018-06-17T00:38:34.911Z,10.67
2018-06-17T00:41:03.038Z,11.30
2018-06-17T00:43:31.160Z,10.63
2018-06-17T00:45:59.376Z,10.23
2018-06-17T00:48:27.473Z,10.77
2018-06-17T00:50:55.551Z,9.77
2018-06-17T00:53:23.617Z,10.30
2018-06-17T00:55:51.720Z,10.27
2018-06-17T00:58:19.787Z,11.27
2018-06-17T01:00:47.899Z,11.23
2018-06-17T01:03:16.023Z,10.97
2018-06-17T01:05:44.116Z,11.07
2018-06-17T01:08:12.211Z,10.83
2018-06-17T01:10:40.289Z,10.63
2018-06-17T01:13:08.382Z,11.30
2018-06-17T01:15:36.491Z,9.80
2018-06-17T01:18:04.605Z,10.47
2018-06-17T01:20:32.718Z,10.80
2018-06-17T01:23:00.829Z,10.63
2018-06-17T01:25:28.919Z,10.73
2018-06-17T01:27:56.802Z,10.87
2018-06-17T01:30:24.957Z,11.23
2018-06-17T01:32:53.107Z,10.53
2018-06-17T01:35:21.285Z,11.17
2018-06-17T01:37:49.381Z,10.80
2018-06-17T01:40:17.476Z,10.73
2018-06-17T01:42:45.550Z,11.23
2018-06-17T01:45:13.647Z,10.00
2018-06-17T01:47:41.752Z,10.90
2018-06-17T01:50:09.898Z,11.50
2018-06-17T01:52:37.979Z,11.63
2018-06-17T01:55:06.105Z,11.07
2018-06-17T01:57:34.239Z,11.63
2018-06-17T02:00:02.352Z,10.57
2018-06-17T02:02:30.478Z,11.80
2018-06-17T02:05:03.983Z,10.83
2018-06-17T02:07:37.711Z,11.37
2018-06-17T02:10:11.298Z,10.87
2018-06-17T02:12:39.382Z,10.47
2018-06-17T02:15:07.464Z,10.30
2018-06-17T02:17:35.538Z,10.97
2018-06-17T02:20:03.658Z,11.03
2018-06-17T02:22:31.764Z,11.63
2018-06-17T02:24:59.853Z,11.37
2018-06-17T02:27:27.920Z,10.93
2018-06-17T02:29:55.992Z,11.77
2018-06-17T02:32:24.085Z,11.50
2018-06-17T02:34:52.235Z,11.47
2018-06-17T02:37:20.347Z,11.10
2018-06-17T02:39:48.299Z,11.13
2018-06-17T02:42:16.434Z,10.30
2018-06-17T02:44:44.517Z,11.50
2018-06-17T02:47:18.259Z,11.13
2018-06-17T02:49:48.052Z,11.60
2018-06-17T02:52:21.614Z,11.70
2018-06-17T02:54:49.723Z,11.17
2018-06-17T02:57:19.094Z,11.37
2018-06-17T02:59:47.435Z,11.33
2018-06-17T03:02:15.750Z,11.47
2018-06-17T03:04:43.868Z,12.53
2018-06-17T03:07:11.992Z,11.50
2018-06-17T03:09:40.088Z,11.53
2018-06-17T03:12:08.171Z,11.93
2018-06-17T03:14:36.286Z,12.30
2018-06-17T03:17:04.219Z,11.63
2018-06-17T03:19:32.416Z,11.40
2018-06-17T03:22:00.544Z,12.10
2018-06-17T03:24:34.136Z,11.40
2018-06-17T03:27:07.641Z,10.97
2018-06-17T03:29:41.174Z,11.30
2018-06-17T03:32:14.705Z,11.03
2018-06-17T03:34:42.778Z,11.67
2018-06-17T03:37:10.879Z,12.00
2018-06-17T03:39:38.976Z,11.23
2018-06-17T03:42:07.068Z,11.67
2018-06-17T03:44:35.169Z,12.50
2018-06-17T03:47:03.521Z,11.33
2018-06-17T03:49:31.686Z,11.83
2018-06-17T03:51:59.798Z,11.13
2018-06-17T03:54:27.916Z,12.80
2018-06-17T03:56:56.079Z,11.67
2018-06-17T03:59:24.183Z,12.13
2018-06-17T04:01:52.364Z,12.40
2018-06-17T04:04:22.052Z,12.77
2018-06-17T04:06:50.166Z,12.50
2018-06-17T04:09:18.310Z,12.10
2018-06-17T04:11:46.407Z,12.60
2018-06-17T04:14:14.519Z,11.67
2018-06-17T04:16:42.625Z,10.60
2018-06-17T04:19:10.697Z,11.30
2018-06-17T04:21:38.802Z,12.37
2018-06-17T04:24:06.915Z,13.00
2018-06-17T04:26:35.185Z,12.73
2018-06-17T04:29:03.335Z,12.70
2018-06-17T04:31:31.415Z,12.87
2018-06-17T04:33:59.510Z,14.03
2018-06-17T04:36:27.419Z,13.23
2018-06-17T04:38:55.542Z,12.90
2018-06-17T04:41:23.619Z,13.13
2018-06-17T04:43:51.522Z,12.63
2018-06-17T04:46:19.622Z,12.70
2018-06-17T04:48:47.722Z,12.53
2018-06-17T04:51:16.062Z,12.17
2018-06-17T04:53:44.174Z,12.53
2018-06-17T04:56:12.285Z,13.10
2018-06-17T04:58:40.352Z,13.37
2018-06-17T05:01:08.486Z,12.07
2018-06-17T05:03:36.590Z,13.43
2018-06-17T05:06:04.878Z,12.40
2018-06-17T05:08:33.020Z,12.80
2018-06-17T05:11:08.111Z,12.67
2018-06-17T05:13:36.227Z,12.00
2018-06-17T05:16:04.400Z,12.57
2018-06-17T05:18:32.571Z,12.80
2018-06-17T05:21:00.685Z,12.70
2018-06-17T05:23:28.791Z,11.83
2018-06-17T05:25:56.931Z,12.50
2018-06-17T05:28:25.054Z,12.63
2018-06-17T05:30:53.175Z,12.33
2018-06-17T05:33:21.286Z,11.70
2018-06-17T05:35:49.377Z,12.23
2018-06-17T05:38:17.522Z,11.87
2018-06-17T05:40:45.809Z,11.97
2018-06-17T05:43:14.147Z,12.60
2018-06-17T05:45:42.289Z,11.03
2018-06-17T05:48:10.408Z,10.63
2018-06-17T05:50:38.626Z,10.70
2018-06-17T05:53:06.721Z,10.73
2018-06-17T05:55:35.086Z,10.53
2018-06-17T05:58:03.216Z,10.93
2018-06-17T06:00:31.370Z,11.27
2018-06-17T06:02:59.516Z,11.07
2018-06-17T06:05:27.677Z,11.33
2018-06-17T06:07:56.031Z,10.87
2018-06-17T06:10:24.382Z,9.57
2018-06-17T06:12:52.433Z,10.70
2018-06-17T06:15:20.569Z,10.30
2018-06-17T06:17:48.711Z,10.40
2018-06-17T06:20:16.792Z,9.93
2018-06-17T06:22:44.905Z,10.77
2018-06-17T06:25:13.055Z,9.53
2018-06-17T06:27:41.463Z,8.40
2018-06-17T06:30:09.596Z,9.53
2018-06-17T06:32:37.738Z,9.47
2018-06-17T06:35:05.956Z,9.00
2018-06-17T06:37:33.992Z,9.20
2018-06-17T06:40:02.117Z,9.23
2018-06-17T06:42:30.290Z,8.63
2018-06-17T06:44:58.403Z,8.70
2018-06-17T06:47:26.574Z,7.70
2018-06-17T06:49:54.709Z,8.03
2018-06-17T06:52:22.848Z,8.63
2018-06-17T06:54:50.979Z,8.53
2018-06-17T06:57:19.062Z,8.77
2018-06-17T06:59:47.177Z,8.50
2018-06-17T07:02:26.641Z,8.47
2018-06-17T07:05:06.159Z,8.43
2018-06-17T07:07:45.737Z,7.90
2018-06-17T07:10:24.639Z,7.90
2018-06-17T07:12:52.831Z,7.57
2018-06-17T07:15:32.680Z,7.90
2018-06-17T07:18:12.310Z,7.30
2018-06-17T07:20:40.394Z,6.70
2018-06-17T07:23:08.272Z,6.90
2018-06-17T07:26:47.924Z,7.20
2018-06-17T07:29:29.442Z,6.70
2018-06-17T07:31:57.506Z,7.60
2018-06-17T07:34:25.689Z,7.17
2018-06-17T07:36:53.804Z,7.73
2018-06-17T07:40:13.484Z,7.33
2018-06-17T07:42:41.609Z,7.13
2018-06-17T07:45:09.727Z,6.87
2018-06-17T07:47:37.839Z,7.63
2018-06-17T07:50:17.589Z,6.50
2018-06-17T07:52:57.201Z,6.53
2018-06-17T07:55:25.374Z,7.10
2018-06-17T07:57:53.494Z,6.30
2018-06-17T08:00:21.598Z,6.43
2018-06-17T08:02:49.820Z,6.40
2018-06-17T08:05:17.923Z,6.63
2018-06-17T08:07:46.062Z,7.40
2018-06-17T08:10:14.195Z,6.37
2018-06-17T08:12:42.324Z,6.07
2018-06-17T08:15:10.452Z,6.83
2018-06-17T08:17:38.551Z,6.97
2018-06-17T08:20:06.656Z,6.77
2018-06-17T08:22:34.879Z,6.93
2018-06-17T08:25:03.005Z,7.07
2018-06-17T08:27:31.203Z,7.10
2018-06-17T08:29:59.460Z,7.70
2018-06-17T08:32:27.556Z,7.27
2018-06-17T08:34:55.666Z,6.53
2018-06-17T08:37:23.848Z,7.43
2018-06-17T08:39:51.813Z,7.70
2018-06-17T08:42:19.910Z,6.67
2018-06-17T08:44:47.793Z,6.60
2018-06-17T08:47:15.882Z,6.37
2018-06-17T08:49:43.977Z,6.67
2018-06-17T08:52:12.082Z,5.40
2018-06-17T08:54:40.215Z,5.70
2018-06-17T08:57:08.326Z,5.10
2018-06-17T08:59:36.317Z,5.60
2018-06-17T09:02:04.423Z,6.20
2018-06-17T09:04:32.491Z,6.73
2018-06-17T09:07:00.556Z,6.30
2018-06-17T09:09:28.661Z,5.33
2018-06-17T09:11:56.738Z,5.13
2018-06-17T09:14:24.795Z,4.47
2018-06-17T09:16:52.879Z,5.37
2018-06-17T09:19:21.018Z,5.17
2018-06-17T09:21:49.096Z,4.67
2018-06-17T09:24:17.181Z,4.80
2018-06-17T09:26:45.274Z,4.60
2018-06-17T09:29:13.380Z,4.80
2018-06-17T09:31:41.511Z,4.47
2018-06-17T09:34:09.559Z,4.90
2018-06-17T09:36:37.685Z,5.10
2018-06-17T09:39:07.472Z,4.70
2018-06-17T09:41:35.741Z,4.83
2018-06-17T09:44:03.824Z,4.73
2018-06-17T09:46:31.891Z,5.33
2018-06-17T09:48:59.969Z,4.47
2018-06-17T09:51:28.068Z,4.30
2018-06-17T09:53:56.159Z,4.20
2018-06-17T09:56:24.231Z,4.27
2018-06-17T09:58:52.379Z,4.30
2018-06-17T10:01:20.508Z,4.93
2018-06-17T10:03:48.634Z,4.20
2018-06-17T10:06:16.724Z,4.30
2018-06-17T10:08:44.818Z,4.47
2018-06-17T10:11:12.880Z,4.47
2018-06-17T10:13:42.924Z,4.30
2018-06-17T10:16:11.492Z,4.83
2018-06-17T10:18:39.593Z,4.33
2018-06-17T10:21:07.685Z,4.67
2018-06-17T10:23:35.750Z,4.30
2018-06-17T10:26:03.896Z,3.87
2018-06-17T10:28:32.910Z,3.73
2018-06-17T10:31:03.730Z,4.43
2018-06-17T10:33:31.813Z,3.80
2018-06-17T10:36:00.279Z,4.30
2018-06-17T10:38:28.689Z,4.00
2018-06-17T10:40:56.835Z,3.70
2018-06-17T10:43:26.383Z,3.87
2018-06-17T10:45:54.749Z,3.93
2018-06-17T10:48:22.851Z,3.50
2018-06-17T10:50:50.968Z,3.97
2018-06-17T10:53:19.044Z,4.80
2018-06-17T10:55:47.253Z,3.73
2018-06-17T10:58:15.240Z,3.83
2018-06-17T11:00:43.489Z,3.43
2018-06-17T11:03:11.538Z,3.60
2018-06-17T11:05:39.675Z,3.50
2018-06-17T11:08:07.774Z,3.90
2018-06-17T11:10:35.892Z,3.50
2018-06-17T11:13:04.011Z,3.47
2018-06-17T11:15:32.122Z,3.60
2018-06-17T11:18:00.246Z,3.47
2018-06-17T11:20:28.349Z,3.53
2018-06-17T11:22:56.430Z,3.70
2018-06-17T11:25:24.514Z,3.73
2018-06-17T11:27:52.587Z,3.90
2018-06-17T11:30:20.700Z,3.83
2018-06-17T11:32:48.775Z,4.00
2018-06-17T11:35:16.916Z,4.00
2018-06-17T11:37:45.004Z,3.60
2018-06-17T11:40:13.152Z,4.00
2018-06-17T11:42:41.288Z,3.70
2018-06-17T11:45:09.431Z,3.80
2018-06-17T11:47:37.778Z,4.50
2018-06-17T11:50:06.055Z,3.93
2018-06-17T11:52:34.190Z,4.07
2018-06-17T11:55:02.284Z,4.47
2018-06-17T11:57:30.438Z,4.13
2018-06-17T11:59:58.567Z,4.80
2018-06-17T12:02:26.655Z,4.57
2018-06-17T12:04:54.788Z,4.40
2018-06-17T12:07:22.992Z,4.03
2018-06-17T12:09:51.164Z,4.30
2018-06-17T12:12:19.289Z,4.47
2018-06-17T12:14:47.444Z,3.83
2018-06-17T12:17:15.479Z,4.50
2018-06-17T12:19:43.600Z,4.20
2018-06-17T12:22:11.705Z,4.30
2018-06-17T12:24:39.888Z,4.10
2018-06-17T12:27:08.077Z,4.40
2018-06-17T12:29:36.180Z,4.70
2018-06-17T12:32:04.719Z,4.47
2018-06-17T12:34:32.896Z,4.40
2018-06-17T12:37:01.079Z,4.40
2018-06-17T12:39:29.242Z,4.20
2018-06-17T12:41:57.426Z,4.27
2018-06-17T12:44:25.605Z,4.20
2018-06-17T12:46:53.701Z,4.53
2018-06-17T12:49:21.840Z,4.40
2018-06-17T12:51:49.917Z,4.37
2018-06-17T12:54:17.831Z,4.40
2018-06-17T12:56:45.951Z,4.57
2018-06-17T12:59:14.039Z,4.40
2018-06-17T13:01:42.107Z,4.53
2018-06-17T13:04:10.207Z,4.53
2018-06-17T13:06:38.351Z,4.27
2018-06-17T13:09:08.843Z,4.17
2018-06-17T13:11:36.918Z,4.60
2018-06-17T13:14:05.007Z,4.40
2018-06-17T13:16:33.090Z,4.00
2018-06-17T13:19:01.668Z,4.40
2018-06-17T13:21:29.754Z,4.20
2018-06-17T13:23:58.059Z,4.70
2018-06-17T13:26:26.967Z,4.63
2018-06-17T13:28:55.076Z,4.73
2018-06-17T13:31:23.716Z,3.90
2018-06-17T13:33:52.288Z,4.70
2018-06-17T13:36:20.391Z,4.80
2018-06-17T13:38:48.496Z,4.73
2018-06-17T13:41:16.595Z,4.30
2018-06-17T13:43:44.763Z,4.43
2018-06-17T13:46:12.952Z,4.43
2018-06-17T13:48:41.192Z,4.60
2018-06-17T13:51:09.271Z,4.67
2018-06-17T13:53:37.392Z,4.10
2018-06-17T13:56:05.674Z,4.27
2018-06-17T13:58:33.925Z,4.23
2018-06-17T14:01:02.109Z,4.60
2018-06-17T14:03:30.276Z,4.93
2018-06-17T14:05:58.373Z,4.73
2018-06-17T14:08:26.497Z,4.40
2018-06-17T14:10:55.071Z,4.60
2018-06-17T14:13:23.158Z,3.90
2018-06-17T14:15:51.360Z,4.40
2018-06-17T14:18:19.460Z,4.30
2018-06-17T14:20:47.667Z,4.30
2018-06-17T14:23:15.855Z,4.47
2018-06-17T14:25:44.005Z,4.60
2018-06-17T14:28:12.072Z,4.67
2018-06-17T14:30:40.291Z,4.50
2018-06-17T14:33:08.538Z,4.47
2018-06-17T14:35:36.624Z,4.17
2018-06-17T14:38:04.849Z,4.37
2018-06-17T14:40:38.446Z,4.73
2018-06-17T14:43:12.016Z,4.37
2018-06-17T14:45:45.616Z,5.13
2018-06-17T14:48:19.288Z,4.40
2018-06-17T14:50:52.798Z,4.10
2018-06-17T14:53:20.869Z,4.03
2018-06-17T14:55:48.959Z,3.63
2018-06-17T14:58:17.034Z,3.97
2018-06-17T15:00:45.145Z,3.53
2018-06-17T15:03:13.283Z,3.60
2018-06-17T15:05:41.379Z,3.00
2018-06-17T15:08:09.437Z,3.10
2018-06-17T15:10:37.503Z,2.90
2018-06-17T15:13:05.545Z,3.20
2018-06-17T15:15:33.683Z,2.50
2018-06-17T15:18:02.333Z,2.80
2018-06-17T15:20:30.448Z,2.30
2018-06-17T15:22:58.490Z,2.50
2018-06-17T15:25:26.596Z,2.10
2018-06-17T15:27:54.690Z,2.50
2018-06-17T15:30:22.780Z,1.80
2018-06-17T15:32:56.275Z,1.93
2018-06-17T15:35:29.874Z,2.20
2018-06-17T15:38:03.392Z,1.80
2018-06-17T15:40:36.915Z,2.33
2018-06-17T15:43:05.022Z,1.90
2018-06-17T15:45:33.312Z,6.03
2018-06-17T15:48:01.460Z,19.50
2018-06-17T15:50:29.520Z,10.13
2018-06-17T15:52:57.609Z,22.10
2018-06-17T15:55:26.470Z,3.10
2018-06-17T15:57:54.551Z,2.97
2018-06-17T16:00:22.647Z,2.63
2018-06-17T16:02:50.739Z,3.93
2018-06-17T16:05:18.924Z,10.10
2018-06-17T16:07:47.099Z,6.87
2018-06-17T16:10:15.219Z,7.20
2018-06-17T16:12:48.701Z,2.70
2018-06-17T16:15:22.163Z,2.10
2018-06-17T16:17:55.812Z,2.17
2018-06-17T16:20:29.483Z,2.10
2018-06-17T16:22:57.823Z,3.27
2018-06-17T16:25:25.867Z,3.60
2018-06-17T16:27:53.954Z,3.37
2018-06-17T16:30:22.012Z,2.27
2018-06-17T16:32:50.108Z,4.53
2018-06-17T16:35:18.253Z,1.70
2018-06-17T16:37:46.427Z,1.70
2018-06-17T16:40:14.511Z,1.60
2018-06-17T16:42:42.654Z,1.50
2018-06-17T16:45:10.924Z,1.80
2018-06-17T16:47:39.001Z,1.60
2018-06-17T16:50:07.109Z,1.53
2018-06-17T16:52:40.683Z,1.43
2018-06-17T16:55:14.380Z,1.63
2018-06-17T16:57:48.078Z,1.60
2018-06-17T17:00:18.801Z,1.33
2018-06-17T17:02:47.296Z,2.07
2018-06-17T17:05:15.528Z,1.87
2018-06-17T17:07:43.965Z,1.70
2018-06-17T17:10:12.094Z,1.60
2018-06-17T17:12:40.192Z,1.83
2018-06-17T17:15:08.374Z,1.80
2018-06-17T17:17:36.493Z,1.60
2018-06-17T17:20:04.869Z,1.70
2018-06-17T17:22:33.016Z,1.60
2018-06-17T17:25:01.110Z,1.37
2018-06-17T17:27:29.266Z,1.60
2018-06-17T17:29:57.167Z,1.60
2018-06-17T17:32:30.841Z,1.50
2018-06-17T17:36:07.459Z,1.73
2018-06-17T17:38:41.150Z,1.40
2018-06-17T17:41:09.261Z,1.40
2018-06-17T17:43:37.363Z,1.90
2018-06-17T17:46:10.932Z,1.70
2018-06-17T17:48:39.035Z,1.70
2018-06-17T17:51:07.180Z,1.87
2018-06-17T17:53:35.259Z,1.80
2018-06-17T17:56:03.354Z,1.80
2018-06-17T17:58:31.329Z,1.70
2018-06-17T18:00:59.494Z,1.80
2018-06-17T18:03:27.650Z,1.83
2018-06-17T18:05:55.788Z,1.70
2018-06-17T18:08:24.018Z,2.00
2018-06-17T18:10:52.366Z,2.07
2018-06-17T18:13:20.665Z,1.67
2018-06-17T18:15:48.770Z,1.93
2018-06-17T18:18:17.189Z,2.10
2018-06-17T18:20:45.405Z,2.37
2018-06-17T18:23:13.580Z,2.27
2018-06-17T18:25:47.111Z,2.23
2018-06-17T18:28:20.994Z,1.90
2018-06-17T18:30:55.574Z,1.77
2018-06-17T18:33:29.208Z,1.63
2018-06-17T18:36:02.677Z,2.00
2018-06-17T18:38:30.906Z,1.60
2018-06-17T18:40:58.891Z,2.03
2018-06-17T18:43:27.150Z,1.50
2018-06-17T18:45:55.290Z,1.90
2018-06-17T18:48:23.395Z,1.90
2018-06-17T18:50:51.812Z,2.00
2018-06-17T18:53:22.339Z,2.00
2018-06-17T18:55:52.541Z,2.27
2018-06-17T18:58:21.679Z,2.00
2018-06-17T19:00:50.672Z,1.90
2018-06-17T19:03:19.241Z,1.80
2018-06-17T19:05:47.364Z,2.03
2018-06-17T19:08:21.158Z,2.03
2018-06-17T19:10:54.512Z,1.97
2018-06-17T19:13:28.188Z,2.00
2018-06-17T19:16:02.299Z,1.87
2018-06-17T19:18:30.666Z,1.80
2018-06-17T19:20:59.124Z,1.60
2018-06-17T19:23:27.222Z,2.23
2018-06-17T19:25:55.761Z,2.07
2018-06-17T19:28:23.975Z,2.20
2018-06-17T19:30:52.106Z,2.00
2018-06-17T19:33:20.350Z,2.50
2018-06-17T19:35:48.416Z,2.50
2018-06-17T19:38:16.574Z,2.17
2018-06-17T19:40:44.975Z,2.50
2018-06-17T19:43:13.136Z,2.23
2018-06-17T19:45:41.323Z,2.30
2018-06-17T19:48:09.465Z,2.90
2018-06-17T19:50:42.966Z,2.20
2018-06-17T19:53:16.708Z,2.43
2018-06-17T19:55:50.410Z,2.10
2018-06-17T19:58:23.841Z,2.10
2018-06-17T20:00:55.230Z,2.70
2018-06-17T20:03:23.401Z,2.47
2018-06-17T20:05:51.663Z,2.90
2018-06-17T20:08:19.600Z,2.77
2018-06-17T20:10:47.719Z,2.57
2018-06-17T20:13:15.827Z,2.50
2018-06-17T20:15:43.978Z,2.50
2018-06-17T20:18:12.138Z,2.37
2018-06-17T20:20:40.239Z,2.17
2018-06-17T20:23:08.393Z,2.00
2018-06-17T20:25:36.528Z,2.43
2018-06-17T20:28:04.616Z,2.57
2018-06-17T20:30:32.717Z,2.23
2018-06-17T20:33:06.211Z,2.63
2018-06-17T20:35:39.893Z,2.37
2018-06-17T20:38:13.444Z,2.50
2018-06-17T20:40:47.011Z,2.33
2018-06-17T20:43:22.386Z,2.20
2018-06-17T20:45:50.541Z,2.03
2018-06-17T20:48:18.700Z,2.10
2018-06-17T20:50:47.132Z,2.57
2018-06-17T20:53:15.286Z,2.40
2018-06-17T20:55:43.412Z,1.90
2018-06-17T20:58:11.556Z,2.10
2018-06-17T21:00:39.713Z,1.97
2018-06-17T21:03:07.834Z,2.33
2018-06-17T21:05:35.907Z,2.60
2018-06-17T21:08:04.128Z,2.67
2018-06-17T21:10:32.372Z,2.60
2018-06-17T21:13:00.265Z,3.30
2018-06-17T21:15:28.339Z,2.77
2018-06-17T21:17:56.462Z,2.53
2018-06-17T21:20:29.948Z,3.17
2018-06-17T21:23:03.523Z,3.10
2018-06-17T21:25:37.135Z,3.03
2018-06-17T21:28:05.245Z,3.70
2018-06-17T21:30:33.134Z,3.33
2018-06-17T21:33:01.276Z,3.07
2018-06-17T21:35:29.390Z,3.27
2018-06-17T21:37:57.513Z,2.70
2018-06-17T21:40:25.610Z,2.90
2018-06-17T21:42:53.734Z,3.20
2018-06-17T21:45:21.885Z,2.73
2018-06-17T21:47:49.978Z,2.73
2018-06-17T21:50:18.134Z,2.87
2018-06-17T21:52:46.200Z,3.23
2018-06-17T21:55:14.300Z,3.00
2018-06-17T21:57:42.381Z,2.60
2018-06-17T22:00:10.629Z,3.00
2018-06-17T22:02:44.736Z,3.13
2018-06-17T22:05:12.921Z,3.30
2018-06-17T22:07:46.427Z,3.00
2018-06-17T22:10:20.090Z,3.10
2018-06-17T22:12:53.544Z,3.10
2018-06-17T22:15:27.272Z,3.77
2018-06-17T22:17:55.692Z,3.30
2018-06-17T22:20:23.791Z,3.43
2018-06-17T22:22:52.622Z,3.40
2018-06-17T22:25:20.728Z,2.70
2018-06-17T22:27:48.827Z,3.10
2018-06-17T22:30:16.922Z,3.30
2018-06-17T22:32:45.158Z,3.07
2018-06-17T22:35:13.243Z,3.40
2018-06-17T22:37:41.423Z,3.23
2018-06-17T22:40:09.530Z,3.30
2018-06-17T22:42:38.279Z,4.53
2018-06-17T22:45:06.684Z,3.47
2018-06-17T22:47:40.435Z,2.67
2018-06-17T22:50:08.844Z,3.23
2018-06-17T22:53:47.154Z,2.80
2018-06-17T22:56:20.810Z,2.70
2018-06-17T22:58:54.532Z,2.80
2018-06-17T23:01:28.112Z,2.90
2018-06-17T23:04:01.744Z,2.90
2018-06-17T23:06:35.427Z,3.30
2018-06-17T23:09:08.898Z,3.20
2018-06-17T23:11:37.017Z,3.00
2018-06-17T23:14:05.113Z,2.63
2018-06-17T23:16:33.184Z,3.00
2018-06-17T23:19:01.296Z,2.80
2018-06-17T23:21:29.403Z,3.10
2018-06-17T23:23:57.482Z,2.90
2018-06-17T23:26:25.587Z,2.80
2018-06-17T23:28:53.701Z,2.77
2018-06-17T23:31:21.807Z,2.60
2018-06-17T23:33:49.866Z,3.00
2018-06-17T23:36:17.939Z,2.97
2018-06-17T23:38:46.015Z,2.87
2018-06-17T23:41:16.055Z,3.10
2018-06-17T23:43:45.480Z,2.97
2018-06-17T23:46:18.978Z,3.00
2018-06-17T23:48:52.491Z,3.10
2018-06-17T23:51:25.979Z,3.43
2018-06-17T23:53:59.503Z,3.10
2018-06-17T23:56:27.599Z,3.20
2018-06-17T23:58:55.705Z,3.10
